createdAt,value
2019-02-08T14:20:51.005Z,994.19
2019-02-08T14:31:25.216Z,990.37
2019-02-08T14:42:00.147Z,989.12
2019-02-08T14:52:35.531Z,988.48
2019-02-08T15:03:11.084Z,988.12
2019-02-08T15:13:46.783Z,988.27
2019-02-08T15:24:22.555Z,988.19
2019-02-08T15:34:59.393Z,988.23
2019-02-08T15:45:35.301Z,988.62
2019-02-08T15:56:11.274Z,988.63
2019-02-08T16:06:48.266Z,988.62
2019-02-08T16:17:24.265Z,988.81
2019-02-08T16:28:00.274Z,988.74
2019-02-08T16:38:36.238Z,988.85
2019-02-08T16:49:13.229Z,988.47
2019-02-08T16:59:49.244Z,988.15
2019-02-08T17:10:25.290Z,987.97
2019-02-08T17:21:01.422Z,987.86
2019-02-08T17:31:37.591Z,987.35
2019-02-08T17:42:13.819Z,987.13
2019-02-08T17:52:50.079Z,987.33
2019-02-08T18:03:26.370Z,987.15
2019-02-08T18:14:02.599Z,987.42
2019-02-08T18:24:38.822Z,987.50
2019-02-08T18:35:15.010Z,987.39
2019-02-08T18:45:51.216Z,987.30
2019-02-08T18:56:27.302Z,987.34
2019-02-08T19:07:03.412Z,987.29
2019-02-08T19:17:39.502Z,987.34
2019-02-08T19:28:15.600Z,987.58
2019-02-08T19:38:51.663Z,987.57
2019-02-08T19:49:27.680Z,987.64
2019-02-08T20:00:03.693Z,987.54
2019-02-08T20:10:39.684Z,987.44
2019-02-08T20:21:15.664Z,987.22
2019-02-08T20:31:51.923Z,987.23
2019-02-08T20:42:27.871Z,987.05
2019-02-08T20:53:03.814Z,986.85
2019-02-08T21:03:39.736Z,986.85
2019-02-08T21:14:15.635Z,986.74
2019-02-08T21:24:51.516Z,986.53
2019-02-08T21:35:27.404Z,986.32
2019-02-08T21:46:03.601Z,986.13
2019-02-08T21:56:39.486Z,985.85
2019-02-08T22:07:15.339Z,985.69
2019-02-08T22:17:51.186Z,985.66
2019-02-08T22:28:27.032Z,985.68
2019-02-08T22:39:02.849Z,985.57
2019-02-08T22:49:38.670Z,985.53
2019-02-08T23:00:14.508Z,985.31
2019-02-08T23:10:50.325Z,984.98
2019-02-08T23:21:26.124Z,984.70
2019-02-08T23:32:01.932Z,984.61
2019-02-08T23:42:37.728Z,984.48
2019-02-08T23:53:13.513Z,984.11
